Time;durP1;ratioP1;P1;durP2;ratioP2;P2;SDS_P1;SDS_P2;PMS_P1;PMS_P2;Temp;Humidity;BMP_temperature;BMP_pressure;BME280_temperature;BME280_humidity;BME280_pressure;Samples;Min_cycle;Max_cycle;Signal;HPM_P1;HPM_P2
2024/01/24 00:01:44;;;;;;;5.03;0.90;;;;;;;;;;5035315;28;20400;-72
2024/01/24 00:04:10;;;;;;;2.67;0.70;;;;;;;;;;5035427;28;20052;-75
2024/01/24 00:06:37;;;;;;;4.65;0.90;;;;;;;;;;5034927;28;20040;-73
2024/01/24 00:09:04;;;;;;;3.78;0.93;;;;;;;;;;5035999;28;20057;-74
2024/01/24 00:11:30;;;;;;;3.38;0.70;;;;;;;;;;5035378;28;20053;-74
2024/01/24 00:13:56;;;;;;;3.47;0.70;;;;;;;;;;5037237;28;20053;-74
2024/01/24 00:16:23;;;;;;;1.92;0.60;;;;;;;;;;5054754;28;20053;-76
2024/01/24 00:18:49;;;;;;;2.57;0.50;;;;;;;;;;5055817;28;20080;-74
2024/01/24 00:21:15;;;;;;;2.47;0.50;;;;;;;;;;5039488;28;20045;-77
2024/01/24 00:23:41;;;;;;;2.30;0.60;;;;;;;;;;5022147;28;20091;-74
2024/01/24 00:26:07;;;;;;;2.35;0.55;;;;;;;;;;5022335;28;20140;-74
2024/01/24 00:28:33;;;;;;;3.10;0.60;;;;;;;;;;5038538;28;20060;-73
2024/01/24 00:31:00;;;;;;;1.83;0.50;;;;;;;;;;5055945;28;20041;-73
2024/01/24 00:33:29;;;;;;;2.15;0.50;;;;;;;;;;5056763;28;20429;-72
2024/01/24 00:35:55;;;;;;;4.20;0.98;;;;;;;;;;5056002;28;20231;-73
2024/01/24 00:38:21;;;;;;;1.87;0.50;;;;;;;;;;5038468;28;20045;-74
2024/01/24 00:40:47;;;;;;;3.70;0.57;;;;;;;;;;5038629;28;20477;-73
2024/01/24 00:43:13;;;;;;;1.63;0.50;;;;;;;;;;5056608;28;20128;-73
2024/01/24 00:45:40;;;;;;;2.28;0.40;;;;;;;;;;5038385;28;20048;-73
2024/01/24 00:48:06;;;;;;;2.80;0.60;;;;;;;;;;5037882;28;20045;-73
2024/01/24 00:50:34;;;;;;;2.03;0.50;;;;;;;;;;5038110;28;20044;-74
2024/01/24 00:53:04;;;;;;;2.50;0.50;;;;;;;;;;5055552;28;20087;-74
2024/01/24 00:55:31;;;;;;;2.42;0.50;;;;;;;;;;5021521;28;20576;-72
2024/01/24 00:57:58;;;;;;;0.98;0.40;;;;;;;;;;5021829;28;20140;-73
2024/01/24 01:00:24;;;;;;;2.15;0.50;;;;;;;;;;5055497;28;20135;-74
2024/01/24 01:02:50;;;;;;;2.97;0.32;;;;;;;;;;5021638;28;20135;-74
2024/01/24 01:05:16;;;;;;;3.28;0.70;;;;;;;;;;5038073;28;20052;-76
2024/01/24 01:07:43;;;;;;;2.40;0.50;;;;;;;;;;5055259;28;20045;-74
2024/01/24 01:10:09;;;;;;;1.90;0.52;;;;;;;;;;5038110;28;20088;-74
2024/01/24 01:12:35;;;;;;;1.98;0.40;;;;;;;;;;5022018;28;20423;-75
2024/01/24 01:15:01;;;;;;;2.28;0.60;;;;;;;;;;5038516;28;20076;-74
2024/01/24 01:17:28;;;;;;;3.67;0.60;;;;;;;;;;5037465;28;20041;-73
2024/01/24 01:19:54;;;;;;;2.83;0.55;;;;;;;;;;5055450;28;20049;-75
2024/01/24 01:22:20;;;;;;;3.28;0.55;;;;;;;;;;5005810;28;20469;-75
2024/01/24 01:24:47;;;;;;;1.50;0.50;;;;;;;;;;5056022;28;20044;-74
2024/01/24 01:27:13;;;;;;;3.05;0.50;;;;;;;;;;5022488;28;20601;-74
2024/01/24 01:29:39;;;;;;;1.73;0.60;;;;;;;;;;5036183;28;20049;-73
2024/01/24 01:32:05;;;;;;;2.15;0.50;;;;;;;;;;5020817;28;20103;-75
2024/01/24 01:34:31;;;;;;;1.73;0.43;;;;;;;;;;5055079;28;20130;-74
2024/01/24 01:36:57;;;;;;;2.40;0.40;;;;;;;;;;5020383;28;20084;-73
2024/01/24 01:39:24;;;;;;;1.15;0.40;;;;;;;;;;5037424;28;20489;-75
2024/01/24 01:41:50;;;;;;;1.95;0.30;;;;;;;;;;5037092;28;20041;-74
2024/01/24 01:44:17;;;;;;;1.60;0.45;;;;;;;;;;5038761;28;20427;-75
2024/01/24 01:46:46;;;;;;;2.70;0.40;;;;;;;;;;5042850;28;20037;-76
2024/01/24 01:49:13;;;;;;;0.75;0.20;;;;;;;;;;5042058;28;20123;-76
2024/01/24 01:51:39;;;;;;;2.23;0.40;;;;;;;;;;5038281;28;20048;-74
2024/01/24 01:54:07;;;;;;;0.93;0.22;;;;;;;;;;5037139;28;20370;-73
2024/01/24 01:56:34;;;;;;;0.85;0.20;;;;;;;;;;5037051;28;20044;-74
2024/01/24 01:59:00;;;;;;;2.35;0.40;;;;;;;;;;5036865;28;20091;-73
2024/01/24 02:01:26;;;;;;;3.60;0.40;;;;;;;;;;5036787;28;20068;-73
2024/01/24 02:03:52;;;;;;;2.70;0.30;;;;;;;;;;5036410;28;20500;-73
2024/01/24 02:06:18;;;;;;;1.20;0.40;;;;;;;;;;5036449;28;20049;-75
2024/01/24 02:08:44;;;;;;;1.00;0.30;;;;;;;;;;5054638;28;20049;-75
2024/01/24 02:11:11;;;;;;;3.72;0.40;;;;;;;;;;5054709;28;20131;-74
2024/01/24 02:13:37;;;;;;;1.50;0.50;;;;;;;;;;5036223;28;20053;-73
2024/01/24 02:16:03;;;;;;;2.72;0.50;;;;;;;;;;5020074;28;20056;-74
2024/01/24 02:18:30;;;;;;;2.40;1.05;;;;;;;;;;5054217;28;20543;-75
2024/01/24 02:20:56;;;;;;;1.97;0.33;;;;;;;;;;5054050;28;20048;-76
2024/01/24 02:23:23;;;;;;;4.13;0.50;;;;;;;;;;5036355;28;20136;-75
2024/01/24 02:25:50;;;;;;;0.80;0.30;;;;;;;;;;5036700;28;20374;-74
2024/01/24 02:28:16;;;;;;;2.65;0.35;;;;;;;;;;5054245;28;20090;-75
2024/01/24 02:30:43;;;;;;;2.70;0.60;;;;;;;;;;5054239;28;20068;-76
2024/01/24 02:33:09;;;;;;;1.38;0.40;;;;;;;;;;5036503;28;20092;-75
2024/01/24 02:35:35;;;;;;;2.30;0.38;;;;;;;;;;5053373;28;21159;-77
2024/01/24 02:38:01;;;;;;;1.98;0.30;;;;;;;;;;5036557;28;20092;-76
2024/01/24 02:40:27;;;;;;;2.40;0.50;;;;;;;;;;5053618;28;20045;-78
2024/01/24 02:42:53;;;;;;;2.77;0.50;;;;;;;;;;5055120;28;20100;-76
2024/01/24 02:45:19;;;;;;;3.40;0.40;;;;;;;;;;5057103;28;20045;-76
2024/01/24 02:47:46;;;;;;;2.67;0.40;;;;;;;;;;5041979;28;20049;-74
2024/01/24 02:50:12;;;;;;;1.73;0.40;;;;;;;;;;5057996;28;20517;-77
2024/01/24 02:52:39;;;;;;;4.03;0.43;;;;;;;;;;5024852;28;20489;-77
2024/01/24 02:55:05;;;;;;;2.65;0.50;;;;;;;;;;5056277;28;20085;-79
2024/01/24 02:57:31;;;;;;;4.53;0.50;;;;;;;;;;5021577;28;20052;-75
2024/01/24 02:59:57;;;;;;;1.42;0.50;;;;;;;;;;5039465;28;20315;-77
2024/01/24 03:02:23;;;;;;;9.98;0.60;;;;;;;;;;5056703;28;20040;-75
2024/01/24 03:04:49;;;;;;;6.22;0.50;;;;;;;;;;5054222;28;20049;-75
2024/01/24 03:07:15;;;;;;;4.53;0.55;;;;;;;;;;5053305;28;20049;-75
2024/01/24 03:09:42;;;;;;;7.10;0.77;;;;;;;;;;5035918;28;20102;-74
2024/01/24 03:12:08;;;;;;;11.25;0.82;;;;;;;;;;5054150;28;20358;-76
2024/01/24 03:14:34;;;;;;;8.23;0.68;;;;;;;;;;5035955;28;20049;-73
2024/01/24 03:17:01;;;;;;;9.73;0.80;;;;;;;;;;5036256;28;20091;-74
2024/01/24 03:19:27;;;;;;;8.75;0.52;;;;;;;;;;5053162;28;20056;-76
2024/01/24 03:21:53;;;;;;;6.82;0.63;;;;;;;;;;5019701;28;20132;-73
2024/01/24 03:24:19;;;;;;;6.50;0.43;;;;;;;;;;5035776;28;20053;-75
2024/01/24 03:26:45;;;;;;;9.05;0.50;;;;;;;;;;5053156;28;20380;-74
2024/01/24 03:29:11;;;;;;;7.93;0.43;;;;;;;;;;5053036;28;20091;-75
2024/01/24 03:31:41;;;;;;;7.97;0.60;;;;;;;;;;5053051;28;20041;-76
2024/01/24 03:34:08;;;;;;;4.68;0.47;;;;;;;;;;5035387;28;20288;-74
2024/01/24 03:36:34;;;;;;;4.95;0.50;;;;;;;;;;5053548;28;20053;-72
2024/01/24 03:39:00;;;;;;;6.25;0.47;;;;;;;;;;5053292;28;20045;-74
2024/01/24 03:41:26;;;;;;;8.27;0.68;;;;;;;;;;5035574;28;20048;-73
2024/01/24 03:43:52;;;;;;;5.55;0.65;;;;;;;;;;5035699;28;20378;-72
2024/01/24 03:46:19;;;;;;;9.30;0.93;;;;;;;;;;5035261;28;20084;-74
2024/01/24 03:48:46;;;;;;;9.82;0.80;;;;;;;;;;5053114;28;20063;-74
2024/01/24 03:51:12;;;;;;;8.43;0.80;;;;;;;;;;5035580;28;20485;-73
2024/01/24 03:53:38;;;;;;;11.98;1.02;;;;;;;;;;5055373;28;20049;-74
2024/01/24 03:56:06;;;;;;;14.25;0.75;;;;;;;;;;5057057;28;20044;-73
2024/01/24 03:58:32;;;;;;;9.98;1.00;;;;;;;;;;5056807;28;20044;-71
2024/01/24 04:00:58;;;;;;;16.60;0.90;;;;;;;;;;5056709;28;20127;-74
2024/01/24 04:03:24;;;;;;;14.38;1.40;;;;;;;;;;5056953;28;20114;-73
2024/01/24 04:05:51;;;;;;;9.30;1.47;;;;;;;;;;5038860;28;20049;-73
2024/01/24 04:08:17;;;;;;;10.70;1.10;;;;;;;;;;5056569;28;20059;-74
2024/01/24 04:10:43;;;;;;;9.63;0.98;;;;;;;;;;5039863;28;20052;-73
2024/01/24 04:13:09;;;;;;;11.70;0.90;;;;;;;;;;5038895;28;20041;-74
2024/01/24 04:15:35;;;;;;;17.10;1.45;;;;;;;;;;5039113;28;20387;-75
2024/01/24 04:18:01;;;;;;;13.23;1.52;;;;;;;;;;5056918;28;20045;-73
2024/01/24 04:20:28;;;;;;;17.30;1.00;;;;;;;;;;5056322;28;20141;-75
2024/01/24 04:22:54;;;;;;;13.88;1.15;;;;;;;;;;5056319;28;20064;-73
2024/01/24 04:25:20;;;;;;;16.95;1.30;;;;;;;;;;5038982;28;20044;-74
2024/01/24 04:27:46;;;;;;;19.45;1.65;;;;;;;;;;5056183;28;20137;-73
2024/01/24 04:30:13;;;;;;;13.17;1.53;;;;;;;;;;5038578;28;20106;-73
2024/01/24 04:32:40;;;;;;;17.40;1.73;;;;;;;;;;5055961;28;20080;-73
2024/01/24 04:35:07;;;;;;;9.63;0.90;;;;;;;;;;5056108;28;20053;-73
2024/01/24 04:37:33;;;;;;;13.18;1.58;;;;;;;;;;5038074;28;20053;-74
2024/01/24 04:40:00;;;;;;;;;;;;;;;;;;5057773;28;20074;-72
2024/01/24 04:42:26;;;;;;;13.60;1.08;;;;;;;;;;5056772;28;20239;-72
2024/01/24 04:44:52;;;;;;;11.93;1.60;;;;;;;;;;5038762;28;20045;-74
2024/01/24 04:47:18;;;;;;;14.15;1.48;;;;;;;;;;5056482;28;20071;-74
2024/01/24 04:49:44;;;;;;;14.07;1.45;;;;;;;;;;5055913;28;20044;-74
2024/01/24 04:52:10;;;;;;;15.65;2.30;;;;;;;;;;5056537;28;20139;-74
2024/01/24 04:54:37;;;;;;;14.90;2.15;;;;;;;;;;5055928;28;20049;-74
2024/01/24 04:57:04;;;;;;;19.42;1.85;;;;;;;;;;5039034;28;20041;-73
2024/01/24 04:59:30;;;;;;;16.55;2.10;;;;;;;;;;5056181;28;20171;-74
2024/01/24 05:01:56;;;;;;;15.38;1.95;;;;;;;;;;5038173;28;20057;-74
2024/01/24 05:04:23;;;;;;;22.42;2.40;;;;;;;;;;5037769;28;20041;-74
2024/01/24 05:06:49;;;;;;;16.17;1.67;;;;;;;;;;5056200;28;20435;-74
2024/01/24 05:09:16;;;;;;;24.00;1.80;;;;;;;;;;5055420;28;20053;-73
2024/01/24 05:11:42;;;;;;;15.10;1.52;;;;;;;;;;5038586;28;20069;-73
2024/01/24 05:14:08;;;;;;;18.07;2.10;;;;;;;;;;5038300;28;20041;-73
2024/01/24 05:16:34;;;;;;;24.25;2.78;;;;;;;;;;5056076;28;20202;-72
2024/01/24 05:19:00;;;;;;;12.65;1.70;;;;;;;;;;5038000;28;20083;-72
2024/01/24 05:21:26;;;;;;;18.90;2.10;;;;;;;;;;5037529;28;20489;-79
2024/01/24 05:23:52;;;;;;;19.27;2.28;;;;;;;;;;5055297;28;20045;-72
2024/01/24 05:26:19;;;;;;;19.17;2.73;;;;;;;;;;5055434;28;20079;-72
2024/01/24 05:28:45;;;;;;;17.17;2.07;;;;;;;;;;5056771;28;20136;-72
2024/01/24 05:31:11;;;;;;;19.45;2.75;;;;;;;;;;5037243;28;20671;-73
2024/01/24 05:33:37;;;;;;;22.08;2.67;;;;;;;;;;5055698;28;20108;-73
2024/01/24 05:36:04;;;;;;;24.55;2.03;;;;;;;;;;5037367;28;20053;-72
2024/01/24 05:38:30;;;;;;;21.20;2.10;;;;;;;;;;5037071;28;20069;-72
2024/01/24 05:40:56;;;;;;;21.15;2.17;;;;;;;;;;5037073;28;20080;-74
2024/01/24 05:43:22;;;;;;;14.95;1.60;;;;;;;;;;5054789;28;20057;-72
2024/01/24 05:45:51;;;;;;;17.92;2.22;;;;;;;;;;5055256;28;20048;-74
2024/01/24 05:48:18;;;;;;;27.13;2.72;;;;;;;;;;5054518;28;20045;-73
2024/01/24 05:50:44;;;;;;;19.33;2.20;;;;;;;;;;5037209;28;20044;-74
2024/01/24 05:53:10;;;;;;;19.83;2.58;;;;;;;;;;5037207;28;20045;-72
2024/01/24 05:55:37;;;;;;;17.08;1.92;;;;;;;;;;5036997;28;20080;-74
2024/01/24 05:58:05;;;;;;;23.20;2.78;;;;;;;;;;5054739;28;20381;-75
2024/01/24 06:00:32;;;;;;;21.13;2.65;;;;;;;;;;5037108;28;20115;-74
2024/01/24 06:02:58;;;;;;;20.27;1.80;;;;;;;;;;5054737;28;20041;-74
2024/01/24 06:05:24;;;;;;;24.67;2.63;;;;;;;;;;5054445;28;20280;-74
2024/01/24 06:07:50;;;;;;;19.52;2.63;;;;;;;;;;5054976;28;20045;-72
2024/01/24 06:10:16;;;;;;;23.88;2.78;;;;;;;;;;5019826;28;20528;-72
2024/01/24 06:12:42;;;;;;;21.27;2.42;;;;;;;;;;5036450;28;20136;-74
2024/01/24 06:15:09;;;;;;;22.17;2.38;;;;;;;;;;5053486;28;20080;-73
2024/01/24 06:17:35;;;;;;;23.10;2.83;;;;;;;;;;5037326;28;20087;-73
2024/01/24 06:20:01;;;;;;;22.65;3.35;;;;;;;;;;5054750;28;20109;-77
2024/01/24 06:22:30;;;;;;;21.90;2.72;;;;;;;;;;5054610;28;20049;-75
2024/01/24 06:24:57;;;;;;;29.67;3.40;;;;;;;;;;5037182;28;20055;-75
2024/01/24 06:27:24;;;;;;;24.40;2.55;;;;;;;;;;5019459;28;20045;-76
2024/01/24 06:29:51;;;;;;;20.20;2.17;;;;;;;;;;5053613;28;20151;-72
2024/01/24 06:32:17;;;;;;;27.05;3.42;;;;;;;;;;5053857;28;20052;-73
2024/01/24 06:34:43;;;;;;;27.90;3.13;;;;;;;;;;5036639;28;20045;-75
2024/01/24 06:37:09;;;;;;;31.30;3.20;;;;;;;;;;5053587;28;20057;-75
2024/01/24 06:39:35;;;;;;;30.48;2.78;;;;;;;;;;5019486;28;20610;-74
2024/01/24 06:42:02;;;;;;;21.67;2.40;;;;;;;;;;5036168;28;20049;-75
2024/01/24 06:44:28;;;;;;;21.52;2.45;;;;;;;;;;5053724;28;20447;-74
2024/01/24 06:46:54;;;;;;;26.80;2.60;;;;;;;;;;5036954;28;20048;-77
2024/01/24 06:49:20;;;;;;;23.95;2.65;;;;;;;;;;5053651;28;20110;-74
2024/01/24 06:51:46;;;;;;;31.40;3.85;;;;;;;;;;5053610;28;20053;-74
2024/01/24 06:54:13;;;;;;;21.15;2.78;;;;;;;;;;5053785;28;20457;-74
2024/01/24 06:56:39;;;;;;;24.60;3.13;;;;;;;;;;5036273;28;20040;-74
2024/01/24 06:59:05;;;;;;;20.52;2.28;;;;;;;;;;5053542;28;20049;-77
2024/01/24 07:01:31;;;;;;;24.23;3.50;;;;;;;;;;5036475;28;20056;-74
2024/01/24 07:03:57;;;;;;;20.92;2.35;;;;;;;;;;5053567;28;20136;-78
2024/01/24 07:06:26;;;;;;;21.17;2.45;;;;;;;;;;5053378;28;20056;-74
2024/01/24 07:08:52;;;;;;;22.15;3.13;;;;;;;;;;5053368;28;20045;-75
2024/01/24 07:11:18;;;;;;;26.77;3.58;;;;;;;;;;5053327;28;20084;-73
2024/01/24 07:13:44;;;;;;;25.17;2.63;;;;;;;;;;5053399;28;20045;-74
2024/01/24 07:16:10;;;;;;;29.02;4.18;;;;;;;;;;5053253;28;20095;-72
2024/01/24 07:18:37;;;;;;;28.05;4.05;;;;;;;;;;5053287;28;20068;-74
2024/01/24 07:21:06;;;;;;;23.95;2.95;;;;;;;;;;5035844;28;20052;-75
2024/01/24 07:23:32;;;;;;;26.42;3.50;;;;;;;;;;5019789;28;20045;-75
2024/01/24 07:25:58;;;;;;;27.80;2.60;;;;;;;;;;5053311;28;20045;-75
2024/01/24 07:28:28;;;;;;;22.63;3.28;;;;;;;;;;5039207;28;20041;-74
2024/01/24 07:30:55;;;;;;;25.20;3.70;;;;;;;;;;5057613;28;20135;-72
2024/01/24 07:33:21;;;;;;;24.88;3.63;;;;;;;;;;5039598;28;20049;-75
2024/01/24 07:35:47;;;;;;;29.65;4.30;;;;;;;;;;5057139;28;20424;-77
2024/01/24 07:38:13;;;;;;;24.52;3.53;;;;;;;;;;5057511;28;20063;-73
2024/01/24 07:40:39;;;;;;;27.77;4.00;;;;;;;;;;5040002;28;20397;-76
2024/01/24 07:43:06;;;;;;;26.13;2.95;;;;;;;;;;5057954;28;20049;-74
2024/01/24 07:45:32;;;;;;;25.15;3.80;;;;;;;;;;5040788;28;20087;-76
2024/01/24 07:47:58;;;;;;;19.15;2.55;;;;;;;;;;5024878;28;20045;-79
2024/01/24 07:50:27;;;;;;;21.20;2.97;;;;;;;;;;5058707;28;20059;-76
2024/01/24 07:52:53;;;;;;;20.63;2.95;;;;;;;;;;5058040;28;20060;-77
2024/01/24 07:55:21;;;;;;;27.77;3.40;;;;;;;;;;5057640;28;20056;-76
2024/01/24 07:57:48;;;;;;;17.25;2.42;;;;;;;;;;5040744;28;20056;-78
2024/01/24 08:00:16;;;;;;;26.65;2.92;;;;;;;;;;5039739;28;20077;-76
2024/01/24 08:02:43;;;;;;;26.08;2.70;;;;;;;;;;5040552;28;20049;-80
2024/01/24 08:05:12;;;;;;;28.55;3.78;;;;;;;;;;5039405;28;20535;-76
2024/01/24 08:07:40;;;;;;;27.65;3.25;;;;;;;;;;5057012;28;20120;-78
2024/01/24 08:10:10;;;;;;;23.65;2.72;;;;;;;;;;5041072;28;20045;-75
2024/01/24 08:12:37;;;;;;;24.75;3.88;;;;;;;;;;5058547;28;20079;-77
2024/01/24 08:15:05;;;;;;;25.35;3.20;;;;;;;;;;5039998;28;20082;-80
2024/01/24 08:17:32;;;;;;;21.10;3.30;;;;;;;;;;5058617;28;20044;-79
2024/01/24 08:19:58;;;;;;;28.13;4.13;;;;;;;;;;5039826;28;20095;-78
2024/01/24 08:22:25;;;;;;;22.83;2.28;;;;;;;;;;5057764;28;20045;-80
2024/01/24 08:24:51;;;;;;;25.65;3.78;;;;;;;;;;5057575;28;20087;-76
2024/01/24 08:27:17;;;;;;;24.60;2.97;;;;;;;;;;5038788;28;20504;-77
2024/01/24 08:29:44;;;;;;;32.30;3.78;;;;;;;;;;5056875;28;20515;-79
2024/01/24 08:32:10;;;;;;;22.60;3.28;;;;;;;;;;5024812;28;20049;-77
2024/01/24 08:34:36;;;;;;;22.50;3.72;;;;;;;;;;5059794;28;20052;-76
2024/01/24 08:37:02;;;;;;;21.33;3.10;;;;;;;;;;5058318;28;20515;-79
2024/01/24 08:39:28;;;;;;;31.92;3.75;;;;;;;;;;5040294;28;20049;-79
2024/01/24 08:41:54;;;;;;;24.08;2.90;;;;;;;;;;5044233;28;20057;-78
2024/01/24 08:44:20;;;;;;;29.08;3.17;;;;;;;;;;5060215;28;20040;-79
2024/01/24 08:46:48;;;;;;;29.20;3.25;;;;;;;;;;5039919;28;20044;-78
2024/01/24 08:49:15;;;;;;;16.58;2.55;;;;;;;;;;5043906;28;20052;-77
2024/01/24 08:51:43;;;;;;;22.38;2.83;;;;;;;;;;5036839;28;20060;-77
2024/01/24 08:54:11;;;;;;;24.63;3.72;;;;;;;;;;5037087;28;20040;-76
2024/01/24 08:56:37;;;;;;;;;;;;;;;;;;5062227;28;20108;-78
2024/01/24 08:59:04;;;;;;;24.95;2.92;;;;;;;;;;5060060;28;19920;-77
2024/01/24 09:01:30;;;;;;;25.30;2.70;;;;;;;;;;5039783;28;20049;-77
2024/01/24 09:03:56;;;;;;;28.52;3.50;;;;;;;;;;5040864;28;20053;-77
2024/01/24 09:06:22;;;;;;;23.67;2.28;;;;;;;;;;5058592;28;20052;-76
2024/01/24 09:08:52;;;;;;;25.50;3.45;;;;;;;;;;5023641;28;20049;-75
2024/01/24 09:11:19;;;;;;;27.30;3.28;;;;;;;;;;5022706;28;20102;-76
2024/01/24 09:13:47;;;;;;;26.65;3.00;;;;;;;;;;5022172;28;20045;-77
2024/01/24 09:16:13;;;;;;;31.00;3.75;;;;;;;;;;5039391;28;20072;-80
2024/01/24 09:18:40;;;;;;;18.57;2.40;;;;;;;;;;5057257;28;20037;-77
2024/01/24 09:21:07;;;;;;;19.30;2.65;;;;;;;;;;5038902;28;20041;-77
2024/01/24 09:23:33;;;;;;;32.50;3.38;;;;;;;;;;5039434;28;20044;-78
2024/01/24 09:25:59;;;;;;;25.92;3.42;;;;;;;;;;5057256;28;20047;-76
2024/01/24 09:28:25;;;;;;;17.50;2.07;;;;;;;;;;5039796;28;20162;-77
2024/01/24 09:30:51;;;;;;;20.57;2.57;;;;;;;;;;5056514;28;20128;-78
2024/01/24 09:33:17;;;;;;;25.15;3.05;;;;;;;;;;5056549;28;20049;-75
2024/01/24 09:35:44;;;;;;;21.02;2.95;;;;;;;;;;5055123;28;20041;-76
2024/01/24 09:38:11;;;;;;;23.10;3.42;;;;;;;;;;5037340;28;20056;-77
2024/01/24 09:40:37;;;;;;;21.38;2.05;;;;;;;;;;5038472;28;20049;-77
2024/01/24 09:43:04;;;;;;;17.17;2.05;;;;;;;;;;5056178;28;20052;-77
2024/01/24 09:45:31;;;;;;;24.02;2.35;;;;;;;;;;5037831;28;20041;-78
2024/01/24 09:47:58;;;;;;;28.30;3.92;;;;;;;;;;5038270;28;20041;-74
2024/01/24 09:50:24;;;;;;;;;;;;;;;;;;5054580;28;20052;-75
2024/01/24 09:52:51;;;;;;;21.67;2.87;;;;;;;;;;5054962;28;20022;-77
2024/01/24 09:55:18;;;;;;;36.15;4.30;;;;;;;;;;5055151;28;20279;-75
2024/01/24 09:57:45;;;;;;;22.65;2.88;;;;;;;;;;5054972;28;20056;-78
2024/01/24 10:00:14;;;;;;;27.30;3.80;;;;;;;;;;5054659;28;20045;-77
2024/01/24 10:02:41;;;;;;;25.45;3.10;;;;;;;;;;5056254;28;20120;-75
2024/01/24 10:05:09;;;;;;;25.30;3.50;;;;;;;;;;5055750;28;20045;-76
2024/01/24 10:07:35;;;;;;;19.02;2.22;;;;;;;;;;5054719;28;20129;-81
2024/01/24 10:10:09;;;;;;;23.23;4.00;;;;;;;;;;5037633;28;20067;-79
2024/01/24 10:12:36;;;;;;;23.63;3.75;;;;;;;;;;5037212;28;20056;-78
2024/01/24 10:15:02;;;;;;;24.90;2.92;;;;;;;;;;5037632;28;20092;-75
2024/01/24 10:17:29;;;;;;;28.80;3.05;;;;;;;;;;5054719;28;20064;-74
2024/01/24 10:19:55;;;;;;;22.20;2.22;;;;;;;;;;5054795;28;20128;-80
2024/01/24 10:22:24;;;;;;;27.17;2.92;;;;;;;;;;5054672;28;20126;-76
2024/01/24 10:24:50;;;;;;;27.27;4.47;;;;;;;;;;5021483;28;20041;-80
2024/01/24 10:27:16;;;;;;;30.30;4.20;;;;;;;;;;5054730;28;20384;-80
2024/01/24 10:29:46;;;;;;;26.02;3.85;;;;;;;;;;5054028;28;20080;-80
2024/01/24 10:32:12;;;;;;;27.10;3.67;;;;;;;;;;5054796;28;20361;-81
2024/01/24 10:34:38;;;;;;;26.98;3.17;;;;;;;;;;5053954;28;20048;-77
2024/01/24 10:37:07;;;;;;;24.57;2.37;;;;;;;;;;5035810;28;20505;-79
2024/01/24 10:39:34;;;;;;;22.60;3.33;;;;;;;;;;5054024;28;20132;-76
2024/01/24 10:42:03;;;;;;;17.90;2.60;;;;;;;;;;5054204;28;20055;-77
2024/01/24 10:44:32;;;;;;;26.02;4.07;;;;;;;;;;5036770;28;20118;-77
2024/01/24 10:46:58;;;;;;;17.63;2.75;;;;;;;;;;5053984;28;20558;-79
2024/01/24 10:49:24;;;;;;;24.10;3.13;;;;;;;;;;5054185;28;20055;-80
2024/01/24 10:51:51;;;;;;;22.90;3.30;;;;;;;;;;5053772;28;20045;-77
2024/01/24 10:54:17;;;;;;;22.13;3.65;;;;;;;;;;5019216;28;20056;-77
2024/01/24 10:56:49;;;;;;;27.77;3.97;;;;;;;;;;5036241;28;20049;-76
2024/01/24 10:59:16;;;;;;;23.38;2.45;;;;;;;;;;5054365;28;20059;-79
2024/01/24 11:01:42;;;;;;;26.50;3.47;;;;;;;;;;5035660;28;20048;-74
2024/01/24 11:04:10;;;;;;;20.40;2.65;;;;;;;;;;5054026;28;20128;-77
2024/01/24 11:06:38;;;;;;;25.55;3.45;;;;;;;;;;5035881;28;20397;-80
2024/01/24 11:09:09;;;;;;;30.08;4.05;;;;;;;;;;5035532;28;20091;-78
2024/01/24 11:11:36;;;;;;;27.63;3.55;;;;;;;;;;5054385;28;20425;-77
2024/01/24 11:14:02;;;;;;;;;;;;;;;;;;5019704;28;20135;-76
2024/01/24 11:16:32;;;;;;;23.27;2.47;;;;;;;;;;5053568;28;20021;-75
2024/01/24 11:19:00;;;;;;;22.77;3.30;;;;;;;;;;5036047;28;20049;-77
2024/01/24 11:21:28;;;;;;;21.85;2.45;;;;;;;;;;5053537;28;20045;-76
2024/01/24 11:23:54;;;;;;;24.33;3.28;;;;;;;;;;5036212;28;20151;-77
2024/01/24 11:26:20;;;;;;;22.83;2.67;;;;;;;;;;5036376;28;20484;-81
2024/01/24 11:28:46;;;;;;;18.98;2.22;;;;;;;;;;5036087;28;20049;-75
2024/01/24 11:31:13;;;;;;;28.95;3.22;;;;;;;;;;5053376;28;20044;-72
2024/01/24 11:33:58;;;;;;;20.08;2.60;;;;;;;;;;5053018;28;20515;-77
2024/01/24 11:36:26;;;;;;;24.75;3.63;;;;;;;;;;5053274;28;20075;-75
2024/01/24 11:38:52;;;;;;;20.08;2.63;;;;;;;;;;5053658;28;20041;-77
2024/01/24 11:41:22;;;;;;;22.83;3.65;;;;;;;;;;5053357;28;20366;-78
2024/01/24 11:43:48;;;;;;;25.40;3.38;;;;;;;;;;5053738;28;20544;-80
2024/01/24 11:46:14;;;;;;;27.27;3.22;;;;;;;;;;5019990;28;20140;-77
2024/01/24 11:48:41;;;;;;;19.73;2.45;;;;;;;;;;5035654;28;20045;-77
2024/01/24 11:51:11;;;;;;;24.33;3.15;;;;;;;;;;5053213;28;20053;-79
2024/01/24 11:53:37;;;;;;;26.33;3.42;;;;;;;;;;5036436;28;20099;-73
2024/01/24 11:56:08;;;;;;;22.05;3.13;;;;;;;;;;5053003;28;20052;-76
2024/01/24 11:58:34;;;;;;;17.60;2.45;;;;;;;;;;5035341;28;20045;-78
2024/01/24 12:01:04;;;;;;;23.10;2.80;;;;;;;;;;5053026;28;20045;-79
2024/01/24 12:03:30;;;;;;;26.58;3.28;;;;;;;;;;5053535;28;20041;-78
2024/01/24 12:05:56;;;;;;;27.02;3.88;;;;;;;;;;5035691;28;20063;-76
2024/01/24 12:08:22;;;;;;;24.87;3.67;;;;;;;;;;5052988;28;20041;-76
2024/01/24 12:10:49;;;;;;;17.83;2.50;;;;;;;;;;5019383;28;20457;-76
2024/01/24 12:13:16;;;;;;;22.65;2.88;;;;;;;;;;5053301;28;20280;-77
2024/01/24 12:15:42;;;;;;;23.95;3.65;;;;;;;;;;5057857;28;20429;-78
2024/01/24 12:18:17;;;;;;;20.33;2.20;;;;;;;;;;5056730;28;20087;-78
2024/01/24 12:20:47;;;;;;;21.98;2.70;;;;;;;;;;5039127;28;20123;-76
2024/01/24 12:23:14;;;;;;;23.30;3.05;;;;;;;;;;5022601;28;20103;-79
2024/01/24 12:25:41;;;;;;;17.83;2.70;;;;;;;;;;5056843;28;20040;-77
2024/01/24 12:28:08;;;;;;;22.95;3.58;;;;;;;;;;5056445;28;20385;-77
2024/01/24 12:30:35;;;;;;;17.40;2.05;;;;;;;;;;5056561;28;20048;-76
2024/01/24 12:33:02;;;;;;;21.05;2.50;;;;;;;;;;5038989;28;20055;-76
2024/01/24 12:35:32;;;;;;;22.85;3.05;;;;;;;;;;5038435;28;20080;-76
2024/01/24 12:38:02;;;;;;;24.70;2.95;;;;;;;;;;5039111;28;20052;-78
2024/01/24 12:40:29;;;;;;;22.48;2.90;;;;;;;;;;5057075;28;20515;-74
2024/01/24 12:42:56;;;;;;;23.77;2.83;;;;;;;;;;5056300;28;20052;-75
2024/01/24 12:45:24;;;;;;;23.80;3.58;;;;;;;;;;5056151;28;20060;-77
2024/01/24 12:47:50;;;;;;;24.27;2.65;;;;;;;;;;5057248;28;20072;-76
2024/01/24 12:50:16;;;;;;;25.80;2.72;;;;;;;;;;5056380;28;20051;-80
2024/01/24 12:52:43;;;;;;;26.33;2.83;;;;;;;;;;5039305;28;20135;-77
2024/01/24 12:55:09;;;;;;;23.00;2.33;;;;;;;;;;5057801;28;20045;-77
2024/01/24 12:57:35;;;;;;;20.58;3.00;;;;;;;;;;5040343;28;20445;-76
2024/01/24 13:00:05;;;;;;;20.50;2.50;;;;;;;;;;5058686;28;20405;-78
2024/01/24 13:02:32;;;;;;;25.15;2.97;;;;;;;;;;5008839;28;20084;-79
2024/01/24 13:04:58;;;;;;;21.63;2.40;;;;;;;;;;5039564;28;20064;-81
2024/01/24 13:07:24;;;;;;;30.30;4.32;;;;;;;;;;5039931;28;20776;-79
2024/01/24 13:09:50;;;;;;;19.57;2.83;;;;;;;;;;5058840;28;20048;-80
2024/01/24 13:12:16;;;;;;;25.15;3.03;;;;;;;;;;5041714;28;20397;-79
2024/01/24 13:14:42;;;;;;;27.63;2.50;;;;;;;;;;5041019;28;20049;-79
2024/01/24 13:17:09;;;;;;;19.52;2.67;;;;;;;;;;5041359;28;20052;-79
2024/01/24 13:19:35;;;;;;;20.85;2.67;;;;;;;;;;5041401;28;20480;-80
2024/01/24 13:22:01;;;;;;;28.63;3.75;;;;;;;;;;5038905;28;20055;-79
2024/01/24 13:24:28;;;;;;;27.15;3.10;;;;;;;;;;5056743;28;20037;-78
2024/01/24 13:26:55;;;;;;;26.90;2.60;;;;;;;;;;5038898;28;20140;-76
2024/01/24 13:29:21;;;;;;;24.55;3.92;;;;;;;;;;5056395;28;20045;-80
2024/01/24 13:31:48;;;;;;;22.38;3.22;;;;;;;;;;5039478;28;20487;-81
2024/01/24 13:34:17;;;;;;;20.38;2.67;;;;;;;;;;5038795;28;20148;-80
2024/01/24 13:36:47;;;;;;;19.45;2.33;;;;;;;;;;5021773;28;20446;-78
2024/01/24 13:39:16;;;;;;;21.08;2.38;;;;;;;;;;5023133;28;20048;-79
2024/01/24 13:41:42;;;;;;;20.80;2.50;;;;;;;;;;5057059;28;20071;-79
2024/01/24 13:44:09;;;;;;;23.27;2.92;;;;;;;;;;5057306;28;20044;-78
2024/01/24 13:46:35;;;;;;;24.50;2.85;;;;;;;;;;5049245;28;20499;-77
2024/01/24 13:49:04;;;;;;;27.17;2.97;;;;;;;;;;5039228;28;20083;-78
2024/01/24 13:51:34;;;;;;;27.60;3.03;;;;;;;;;;5057044;28;20049;-75
2024/01/24 13:54:00;;;;;;;21.10;2.65;;;;;;;;;;5037868;28;20041;-74
2024/01/24 13:56:26;;;;;;;22.95;3.08;;;;;;;;;;5055520;28;20092;-75
2024/01/24 13:58:55;;;;;;;21.63;3.22;;;;;;;;;;5020684;28;20052;-74
2024/01/24 14:01:21;;;;;;;19.55;2.50;;;;;;;;;;5054929;28;20454;-74
2024/01/24 14:03:51;;;;;;;19.48;2.28;;;;;;;;;;5055936;28;20061;-77
2024/01/24 14:06:19;;;;;;;20.55;2.97;;;;;;;;;;5020932;28;20075;-77
2024/01/24 14:08:45;;;;;;;26.73;3.55;;;;;;;;;;5054468;28;20053;-74
2024/01/24 14:11:13;;;;;;;26.23;2.55;;;;;;;;;;5037880;28;20049;-74
2024/01/24 14:13:40;;;;;;;20.02;2.30;;;;;;;;;;5055282;28;20052;-73
2024/01/24 14:16:06;;;;;;;25.35;2.95;;;;;;;;;;5037730;28;20052;-74
2024/01/24 14:18:33;;;;;;;27.00;4.57;;;;;;;;;;5037923;28;20436;-74
2024/01/24 14:20:59;;;;;;;24.85;2.28;;;;;;;;;;5054625;28;20044;-74
2024/01/24 14:23:25;;;;;;;23.35;3.60;;;;;;;;;;5036519;28;20049;-73
2024/01/24 14:25:51;;;;;;;22.17;3.00;;;;;;;;;;5054151;28;20045;-75
2024/01/24 14:28:17;;;;;;;29.75;3.53;;;;;;;;;;5054299;28;20045;-76
2024/01/24 14:30:43;;;;;;;27.33;3.17;;;;;;;;;;5036582;28;20049;-74
2024/01/24 14:33:09;;;;;;;18.52;2.45;;;;;;;;;;5053917;28;20051;-74